sensor_id;sensor_type;location;lat;lon;timestamp;temperature;humidity
19252;DHT22;9760;50.944;5.304;2023-04-25T00:01:05;8.30;99.90
19252;DHT22;9760;50.944;5.304;2023-04-25T00:03:31;8.30;99.90
19252;DHT22;9760;50.944;5.304;2023-04-25T00:05:58;8.20;99.90
19252;DHT22;9760;50.944;5.304;2023-04-25T00:08:28;8.20;99.90
19252;DHT22;9760;50.944;5.304;2023-04-25T00:10:54;8.30;99.90
19252;DHT22;9760;50.944;5.304;2023-04-25T00:13:20;8.10;99.90
19252;DHT22;9760;50.944;5.304;2023-04-25T00:15:47;8.20;99.90
19252;DHT22;9760;50.944;5.304;2023-04-25T00:18:14;8.20;99.90
19252;DHT22;9760;50.944;5.304;2023-04-25T00:20:40;8.20;99.90
19252;DHT22;9760;50.944;5.304;2023-04-25T00:23:05;8.20;99.90
19252;DHT22;9760;50.944;5.304;2023-04-25T00:25:31;8.20;99.90
19252;DHT22;9760;50.944;5.304;2023-04-25T00:28:09;8.20;99.90
19252;DHT22;9760;50.944;5.304;2023-04-25T00:30:34;8.20;99.90
19252;DHT22;9760;50.944;5.304;2023-04-25T00:33:00;8.20;99.90
19252;DHT22;9760;50.944;5.304;2023-04-25T00:35:26;8.20;99.90
19252;DHT22;9760;50.944;5.304;2023-04-25T00:37:52;8.10;99.90
19252;DHT22;9760;50.944;5.304;2023-04-25T00:40:17;8.00;99.90
19252;DHT22;9760;50.944;5.304;2023-04-25T00:42:44;8.10;99.90
19252;DHT22;9760;50.944;5.304;2023-04-25T00:45:13;8.00;99.90
19252;DHT22;9760;50.944;5.304;2023-04-25T00:47:40;8.10;99.90
19252;DHT22;9760;50.944;5.304;2023-04-25T00:50:06;8.10;99.90
19252;DHT22;9760;50.944;5.304;2023-04-25T00:52:32;8.10;99.90
19252;DHT22;9760;50.944;5.304;2023-04-25T00:54:58;8.10;99.90
19252;DHT22;9760;50.944;5.304;2023-04-25T00:57:24;8.10;99.90
19252;DHT22;9760;50.944;5.304;2023-04-25T00:59:51;8.10;99.90
19252;DHT22;9760;50.944;5.304;2023-04-25T01:02:18;8.10;99.90
19252;DHT22;9760;50.944;5.304;2023-04-25T01:04:44;8.00;99.90
19252;DHT22;9760;50.944;5.304;2023-04-25T01:07:10;8.00;99.90
19252;DHT22;9760;50.944;5.304;2023-04-25T01:09:36;8.00;99.90
19252;DHT22;9760;50.944;5.304;2023-04-25T01:12:02;8.00;99.90
19252;DHT22;9760;50.944;5.304;2023-04-25T01:14:28;7.90;99.90
19252;DHT22;9760;50.944;5.304;2023-04-25T01:16:55;7.90;99.90
19252;DHT22;9760;50.944;5.304;2023-04-25T01:19:21;7.90;99.90
19252;DHT22;9760;50.944;5.304;2023-04-25T01:21:46;7.90;99.90
19252;DHT22;9760;50.944;5.304;2023-04-25T01:24:13;7.80;99.90
19252;DHT22;9760;50.944;5.304;2023-04-25T01:26:40;7.90;99.90
19252;DHT22;9760;50.944;5.304;2023-04-25T01:29:10;7.80;99.90
19252;DHT22;9760;50.944;5.304;2023-04-25T01:31:36;7.80;99.90
19252;DHT22;9760;50.944;5.304;2023-04-25T01:34:02;7.90;99.90
19252;DHT22;9760;50.944;5.304;2023-04-25T01:36:28;7.90;99.90
19252;DHT22;9760;50.944;5.304;2023-04-25T01:38:54;8.00;99.90
19252;DHT22;9760;50.944;5.304;2023-04-25T01:41:20;8.00;99.90
19252;DHT22;9760;50.944;5.304;2023-04-25T01:43:48;8.00;99.90
19252;DHT22;9760;50.944;5.304;2023-04-25T01:46:14;8.00;99.90
19252;DHT22;9760;50.944;5.304;2023-04-25T01:48:40;8.00;99.90
19252;DHT22;9760;50.944;5.304;2023-04-25T01:51:06;8.00;99.90
19252;DHT22;9760;50.944;5.304;2023-04-25T01:53:32;7.90;99.90
19252;DHT22;9760;50.944;5.304;2023-04-25T01:55:57;7.90;99.90
19252;DHT22;9760;50.944;5.304;2023-04-25T01:58:23;7.90;99.90
19252;DHT22;9760;50.944;5.304;2023-04-25T02:00:49;8.00;99.90
19252;DHT22;9760;50.944;5.304;2023-04-25T02:03:14;8.00;99.90
19252;DHT22;9760;50.944;5.304;2023-04-25T02:05:40;7.90;99.90
19252;DHT22;9760;50.944;5.304;2023-04-25T02:08:07;7.80;99.90
19252;DHT22;9760;50.944;5.304;2023-04-25T02:10:34;7.90;99.90
19252;DHT22;9760;50.944;5.304;2023-04-25T02:12:59;7.80;99.90
19252;DHT22;9760;50.944;5.304;2023-04-25T02:15:25;7.80;99.90
19252;DHT22;9760;50.944;5.304;2023-04-25T02:17:51;7.80;99.90
19252;DHT22;9760;50.944;5.304;2023-04-25T02:20:23;7.80;99.90
19252;DHT22;9760;50.944;5.304;2023-04-25T02:22:49;7.70;99.90
19252;DHT22;9760;50.944;5.304;2023-04-25T02:25:15;7.80;99.90
19252;DHT22;9760;50.944;5.304;2023-04-25T02:27:41;7.70;99.90
19252;DHT22;9760;50.944;5.304;2023-04-25T02:30:08;7.70;99.90
19252;DHT22;9760;50.944;5.304;2023-04-25T02:32:34;7.70;99.90
19252;DHT22;9760;50.944;5.304;2023-04-25T02:35:00;7.80;99.90
19252;DHT22;9760;50.944;5.304;2023-04-25T02:37:33;7.80;99.90
19252;DHT22;9760;50.944;5.304;2023-04-25T02:39:59;7.70;99.90
19252;DHT22;9760;50.944;5.304;2023-04-25T02:42:25;7.70;99.90
19252;DHT22;9760;50.944;5.304;2023-04-25T02:44:51;7.60;99.90
19252;DHT22;9760;50.944;5.304;2023-04-25T02:47:16;7.50;99.90
19252;DHT22;9760;50.944;5.304;2023-04-25T02:49:42;7.50;99.90
19252;DHT22;9760;50.944;5.304;2023-04-25T02:52:07;7.60;99.90
19252;DHT22;9760;50.944;5.304;2023-04-25T02:54:34;7.60;99.90
19252;DHT22;9760;50.944;5.304;2023-04-25T02:56:59;7.50;99.90
19252;DHT22;9760;50.944;5.304;2023-04-25T02:59:26;7.60;99.90
19252;DHT22;9760;50.944;5.304;2023-04-25T03:01:52;7.50;99.90
19252;DHT22;9760;50.944;5.304;2023-04-25T03:04:17;7.50;99.90
19252;DHT22;9760;50.944;5.304;2023-04-25T03:06:44;7.50;99.90
19252;DHT22;9760;50.944;5.304;2023-04-25T03:09:10;7.50;99.90
19252;DHT22;9760;50.944;5.304;2023-04-25T03:11:38;7.60;99.90
19252;DHT22;9760;50.944;5.304;2023-04-25T03:14:04;7.60;99.90
19252;DHT22;9760;50.944;5.304;2023-04-25T03:16:29;7.60;99.90
19252;DHT22;9760;50.944;5.304;2023-04-25T03:18:56;7.60;99.90
19252;DHT22;9760;50.944;5.304;2023-04-25T03:21:22;7.60;99.90
19252;DHT22;9760;50.944;5.304;2023-04-25T03:23:47;7.60;99.90
19252;DHT22;9760;50.944;5.304;2023-04-25T03:26:13;7.60;99.90
19252;DHT22;9760;50.944;5.304;2023-04-25T03:28:39;7.60;99.90
19252;DHT22;9760;50.944;5.304;2023-04-25T03:31:05;7.60;99.90
19252;DHT22;9760;50.944;5.304;2023-04-25T03:33:31;7.60;99.90
19252;DHT22;9760;50.944;5.304;2023-04-25T03:35:57;7.60;99.90
19252;DHT22;9760;50.944;5.304;2023-04-25T03:38:22;7.60;99.90
19252;DHT22;9760;50.944;5.304;2023-04-25T03:40:51;7.50;99.90
19252;DHT22;9760;50.944;5.304;2023-04-25T03:43:17;7.50;99.90
19252;DHT22;9760;50.944;5.304;2023-04-25T03:45:42;7.50;99.90
19252;DHT22;9760;50.944;5.304;2023-04-25T03:48:08;7.50;99.90
19252;DHT22;9760;50.944;5.304;2023-04-25T03:50:34;7.40;99.90
19252;DHT22;9760;50.944;5.304;2023-04-25T03:53:00;7.40;99.90
19252;DHT22;9760;50.944;5.304;2023-04-25T03:55:25;7.40;99.90
19252;DHT22;9760;50.944;5.304;2023-04-25T03:57:51;7.40;99.90
19252;DHT22;9760;50.944;5.304;2023-04-25T04:00:17;7.40;99.90
19252;DHT22;9760;50.944;5.304;2023-04-25T04:02:42;7.40;99.90
19252;DHT22;9760;50.944;5.304;2023-04-25T04:05:08;7.30;99.90
19252;DHT22;9760;50.944;5.304;2023-04-25T04:07:35;7.30;99.90
19252;DHT22;9760;50.944;5.304;2023-04-25T04:10:06;6.90;99.90
19252;DHT22;9760;50.944;5.304;2023-04-25T04:12:32;6.70;99.90
19252;DHT22;9760;50.944;5.304;2023-04-25T04:14:58;6.70;99.90
19252;DHT22;9760;50.944;5.304;2023-04-25T04:17:24;6.70;99.90
19252;DHT22;9760;50.944;5.304;2023-04-25T04:19:50;6.70;99.90
19252;DHT22;9760;50.944;5.304;2023-04-25T04:22:16;6.70;99.90
19252;DHT22;9760;50.944;5.304;2023-04-25T04:24:41;6.70;99.90
19252;DHT22;9760;50.944;5.304;2023-04-25T04:27:11;6.60;99.90
19252;DHT22;9760;50.944;5.304;2023-04-25T04:29:38;6.60;99.90
19252;DHT22;9760;50.944;5.304;2023-04-25T04:32:04;6.60;99.90
19252;DHT22;9760;50.944;5.304;2023-04-25T04:34:30;6.50;99.90
19252;DHT22;9760;50.944;5.304;2023-04-25T04:36:56;6.50;99.90
19252;DHT22;9760;50.944;5.304;2023-04-25T04:39:22;6.60;99.90
19252;DHT22;9760;50.944;5.304;2023-04-25T04:41:48;6.60;99.90
19252;DHT22;9760;50.944;5.304;2023-04-25T04:44:14;6.80;99.90
19252;DHT22;9760;50.944;5.304;2023-04-25T04:46:40;6.80;99.90
19252;DHT22;9760;50.944;5.304;2023-04-25T04:49:11;6.70;99.90
19252;DHT22;9760;50.944;5.304;2023-04-25T04:51:38;6.70;99.90
19252;DHT22;9760;50.944;5.304;2023-04-25T04:54:04;6.70;99.90
19252;DHT22;9760;50.944;5.304;2023-04-25T04:56:30;6.80;99.90
19252;DHT22;9760;50.944;5.304;2023-04-25T04:58:57;6.90;99.90
19252;DHT22;9760;50.944;5.304;2023-04-25T05:01:22;6.90;99.90
19252;DHT22;9760;50.944;5.304;2023-04-25T05:03:48;6.90;99.90
19252;DHT22;9760;50.944;5.304;2023-04-25T05:06:16;7.00;99.90
19252;DHT22;9760;50.944;5.304;2023-04-25T05:08:41;7.10;99.90
19252;DHT22;9760;50.944;5.304;2023-04-25T05:11:07;7.20;99.90
19252;DHT22;9760;50.944;5.304;2023-04-25T05:13:32;7.10;99.90
19252;DHT22;9760;50.944;5.304;2023-04-25T05:15:58;7.20;99.90
19252;DHT22;9760;50.944;5.304;2023-04-25T05:18:24;7.20;99.90
19252;DHT22;9760;50.944;5.304;2023-04-25T05:20:49;7.20;99.90
19252;DHT22;9760;50.944;5.304;2023-04-25T05:23:15;7.30;99.90
19252;DHT22;9760;50.944;5.304;2023-04-25T05:25:41;7.30;99.90
19252;DHT22;9760;50.944;5.304;2023-04-25T05:28:07;7.30;99.90
19252;DHT22;9760;50.944;5.304;2023-04-25T05:30:34;7.40;99.90
19252;DHT22;9760;50.944;5.304;2023-04-25T05:33:00;7.40;99.90
19252;DHT22;9760;50.944;5.304;2023-04-25T05:35:25;7.40;99.90
19252;DHT22;9760;50.944;5.304;2023-04-25T05:37:51;7.30;99.90
19252;DHT22;9760;50.944;5.304;2023-04-25T05:40:17;7.30;99.90
19252;DHT22;9760;50.944;5.304;2023-04-25T05:42:42;7.20;99.90
19252;DHT22;9760;50.944;5.304;2023-04-25T05:45:08;7.30;99.90
19252;DHT22;9760;50.944;5.304;2023-04-25T05:47:35;7.30;99.90
19252;DHT22;9760;50.944;5.304;2023-04-25T05:50:00;7.40;99.90
19252;DHT22;9760;50.944;5.304;2023-04-25T05:52:26;7.40;99.90
19252;DHT22;9760;50.944;5.304;2023-04-25T05:54:52;7.50;99.90
19252;DHT22;9760;50.944;5.304;2023-04-25T05:57:22;7.50;99.90
19252;DHT22;9760;50.944;5.304;2023-04-25T05:59:48;7.50;99.90
19252;DHT22;9760;50.944;5.304;2023-04-25T06:02:14;7.50;99.90
19252;DHT22;9760;50.944;5.304;2023-04-25T06:04:39;7.50;99.90
19252;DHT22;9760;50.944;5.304;2023-04-25T06:07:05;7.50;99.90
19252;DHT22;9760;50.944;5.304;2023-04-25T06:09:31;7.50;99.90
19252;DHT22;9760;50.944;5.304;2023-04-25T06:11:56;7.50;99.90
19252;DHT22;9760;50.944;5.304;2023-04-25T06:14:22;7.60;99.90
19252;DHT22;9760;50.944;5.304;2023-04-25T06:16:48;7.60;99.90
19252;DHT22;9760;50.944;5.304;2023-04-25T06:19:13;7.60;99.90
19252;DHT22;9760;50.944;5.304;2023-04-25T06:21:39;7.70;99.90
19252;DHT22;9760;50.944;5.304;2023-04-25T06:24:05;7.80;99.90
19252;DHT22;9760;50.944;5.304;2023-04-25T06:26:31;7.80;99.90
19252;DHT22;9760;50.944;5.304;2023-04-25T06:28:56;7.70;99.90
19252;DHT22;9760;50.944;5.304;2023-04-25T06:31:22;7.80;99.90
19252;DHT22;9760;50.944;5.304;2023-04-25T06:33:47;7.90;99.90
19252;DHT22;9760;50.944;5.304;2023-04-25T06:36:14;8.00;99.90
19252;DHT22;9760;50.944;5.304;2023-04-25T06:38:39;8.00;99.90
19252;DHT22;9760;50.944;5.304;2023-04-25T06:41:05;8.10;99.90
19252;DHT22;9760;50.944;5.304;2023-04-25T06:43:31;8.00;99.90
19252;DHT22;9760;50.944;5.304;2023-04-25T06:45:59;8.00;99.90
19252;DHT22;9760;50.944;5.304;2023-04-25T06:48:26;8.00;99.90
19252;DHT22;9760;50.944;5.304;2023-04-25T06:50:52;8.00;99.90
19252;DHT22;9760;50.944;5.304;2023-04-25T06:53:18;8.00;99.90
19252;DHT22;9760;50.944;5.304;2023-04-25T06:55:44;8.00;99.90
19252;DHT22;9760;50.944;5.304;2023-04-25T06:58:09;8.00;99.90
19252;DHT22;9760;50.944;5.304;2023-04-25T07:00:35;8.10;99.90
19252;DHT22;9760;50.944;5.304;2023-04-25T07:03:01;8.20;99.90
19252;DHT22;9760;50.944;5.304;2023-04-25T07:05:27;8.20;99.90
19252;DHT22;9760;50.944;5.304;2023-04-25T07:07:53;8.20;99.90
19252;DHT22;9760;50.944;5.304;2023-04-25T07:10:18;8.20;99.90
19252;DHT22;9760;50.944;5.304;2023-04-25T07:12:44;8.10;99.90
19252;DHT22;9760;50.944;5.304;2023-04-25T07:15:10;8.20;99.90
19252;DHT22;9760;50.944;5.304;2023-04-25T07:17:37;8.20;99.90
19252;DHT22;9760;50.944;5.304;2023-04-25T07:20:03;8.30;99.90
19252;DHT22;9760;50.944;5.304;2023-04-25T07:22:29;8.30;99.90
19252;DHT22;9760;50.944;5.304;2023-04-25T07:24:55;8.30;99.90
19252;DHT22;9760;50.944;5.304;2023-04-25T07:27:21;8.40;99.90
19252;DHT22;9760;50.944;5.304;2023-04-25T07:29:46;8.60;99.90
19252;DHT22;9760;50.944;5.304;2023-04-25T07:32:12;8.60;99.90
19252;DHT22;9760;50.944;5.304;2023-04-25T07:34:39;8.80;99.90
19252;DHT22;9760;50.944;5.304;2023-04-25T07:37:05;8.90;99.90
19252;DHT22;9760;50.944;5.304;2023-04-25T07:39:31;9.00;99.90
19252;DHT22;9760;50.944;5.304;2023-04-25T07:41:56;9.00;99.90
19252;DHT22;9760;50.944;5.304;2023-04-25T07:44:24;9.00;99.90
19252;DHT22;9760;50.944;5.304;2023-04-25T07:46:50;8.80;99.90
19252;DHT22;9760;50.944;5.304;2023-04-25T07:49:16;8.70;99.90
19252;DHT22;9760;50.944;5.304;2023-04-25T07:51:42;8.70;99.90
19252;DHT22;9760;50.944;5.304;2023-04-25T07:54:09;8.90;99.90
19252;DHT22;9760;50.944;5.304;2023-04-25T07:56:35;8.90;99.90
19252;DHT22;9760;50.944;5.304;2023-04-25T07:59:01;8.90;99.90
19252;DHT22;9760;50.944;5.304;2023-04-25T08:01:26;8.90;99.90
19252;DHT22;9760;50.944;5.304;2023-04-25T08:03:52;8.90;99.90
19252;DHT22;9760;50.944;5.304;2023-04-25T08:06:18;9.00;99.90
19252;DHT22;9760;50.944;5.304;2023-04-25T08:08:45;9.00;99.90
19252;DHT22;9760;50.944;5.304;2023-04-25T08:11:10;9.00;99.90
19252;DHT22;9760;50.944;5.304;2023-04-25T08:13:36;8.90;99.90
19252;DHT22;9760;50.944;5.304;2023-04-25T08:16:02;8.90;99.90
19252;DHT22;9760;50.944;5.304;2023-04-25T08:18:27;9.20;99.90
19252;DHT22;9760;50.944;5.304;2023-04-25T08:20:53;9.30;99.90
19252;DHT22;9760;50.944;5.304;2023-04-25T08:23:19;9.60;99.90
19252;DHT22;9760;50.944;5.304;2023-04-25T08:25:44;9.60;99.90
19252;DHT22;9760;50.944;5.304;2023-04-25T08:28:10;9.80;99.90
19252;DHT22;9760;50.944;5.304;2023-04-25T08:30:36;9.60;99.90
19252;DHT22;9760;50.944;5.304;2023-04-25T08:33:02;9.40;99.90
19252;DHT22;9760;50.944;5.304;2023-04-25T08:35:28;9.40;99.90
19252;DHT22;9760;50.944;5.304;2023-04-25T08:37:54;9.30;99.90
19252;DHT22;9760;50.944;5.304;2023-04-25T08:40:22;9.10;99.90
19252;DHT22;9760;50.944;5.304;2023-04-25T08:42:54;9.00;99.90
19252;DHT22;9760;50.944;5.304;2023-04-25T08:45:21;8.90;99.90
19252;DHT22;9760;50.944;5.304;2023-04-25T08:47:47;8.90;99.90
19252;DHT22;9760;50.944;5.304;2023-04-25T08:50:15;8.90;99.90
19252;DHT22;9760;50.944;5.304;2023-04-25T08:52:45;8.80;99.90
19252;DHT22;9760;50.944;5.304;2023-04-25T08:55:12;8.90;99.90
19252;DHT22;9760;50.944;5.304;2023-04-25T08:57:39;8.90;99.90
19252;DHT22;9760;50.944;5.304;2023-04-25T09:00:05;9.20;99.90
19252;DHT22;9760;50.944;5.304;2023-04-25T09:02:31;9.30;99.90
19252;DHT22;9760;50.944;5.304;2023-04-25T09:04:57;9.20;99.90
19252;DHT22;9760;50.944;5.304;2023-04-25T09:07:23;9.20;99.90
19252;DHT22;9760;50.944;5.304;2023-04-25T09:09:49;9.00;99.90
19252;DHT22;9760;50.944;5.304;2023-04-25T09:12:14;9.30;99.90
19252;DHT22;9760;50.944;5.304;2023-04-25T09:14:40;9.50;99.90
19252;DHT22;9760;50.944;5.304;2023-04-25T09:17:07;9.70;99.90
19252;DHT22;9760;50.944;5.304;2023-04-25T09:19:35;9.70;99.90
19252;DHT22;9760;50.944;5.304;2023-04-25T09:22:03;9.60;99.90
19252;DHT22;9760;50.944;5.304;2023-04-25T09:24:35;9.60;99.90
19252;DHT22;9760;50.944;5.304;2023-04-25T09:27:03;9.90;99.90
19252;DHT22;9760;50.944;5.304;2023-04-25T09:29:30;10.10;99.90
19252;DHT22;9760;50.944;5.304;2023-04-25T09:32:21;10.30;99.90
19252;DHT22;9760;50.944;5.304;2023-04-25T09:34:57;10.40;99.90
19252;DHT22;9760;50.944;5.304;2023-04-25T09:37:27;10.60;99.90
19252;DHT22;9760;50.944;5.304;2023-04-25T09:39:57;10.40;99.90
19252;DHT22;9760;50.944;5.304;2023-04-25T09:42:31;10.20;99.90
19252;DHT22;9760;50.944;5.304;2023-04-25T09:44:58;10.10;99.90
19252;DHT22;9760;50.944;5.304;2023-04-25T09:47:25;10.10;99.90
19252;DHT22;9760;50.944;5.304;2023-04-25T09:49:53;10.40;99.90
19252;DHT22;9760;50.944;5.304;2023-04-25T09:52:23;11.00;99.90
19252;DHT22;9760;50.944;5.304;2023-04-25T09:54:51;11.40;99.90
19252;DHT22;9760;50.944;5.304;2023-04-25T09:57:24;11.50;99.90
19252;DHT22;9760;50.944;5.304;2023-04-25T09:59:52;11.70;99.90
19252;DHT22;9760;50.944;5.304;2023-04-25T10:02:20;11.60;99.90
19252;DHT22;9760;50.944;5.304;2023-04-25T10:04:53;11.10;99.90
19252;DHT22;9760;50.944;5.304;2023-04-25T10:07:25;10.80;99.90
19252;DHT22;9760;50.944;5.304;2023-04-25T10:09:58;11.30;99.90
19252;DHT22;9760;50.944;5.304;2023-04-25T10:12:26;11.90;99.90
19252;DHT22;9760;50.944;5.304;2023-04-25T10:14:52;11.70;99.90
19252;DHT22;9760;50.944;5.304;2023-04-25T10:17:20;11.00;99.90
19252;DHT22;9760;50.944;5.304;2023-04-25T10:19:47;10.60;99.90
19252;DHT22;9760;50.944;5.304;2023-04-25T10:22:25;10.60;99.90
19252;DHT22;9760;50.944;5.304;2023-04-25T10:24:55;10.60;99.90
19252;DHT22;9760;50.944;5.304;2023-04-25T10:27:22;10.60;99.90
19252;DHT22;9760;50.944;5.304;2023-04-25T10:30:03;10.30;99.90
19252;DHT22;9760;50.944;5.304;2023-04-25T10:32:31;10.20;99.90
19252;DHT22;9760;50.944;5.304;2023-04-25T10:35:25;10.10;99.90
19252;DHT22;9760;50.944;5.304;2023-04-25T10:38:05;9.90;99.90
19252;DHT22;9760;50.944;5.304;2023-04-25T10:40:32;9.30;99.90
19252;DHT22;9760;50.944;5.304;2023-04-25T10:43:33;9.70;99.90
19252;DHT22;9760;50.944;5.304;2023-04-25T10:46:02;9.80;99.90
19252;DHT22;9760;50.944;5.304;2023-04-25T10:48:31;10.00;99.90
19252;DHT22;9760;50.944;5.304;2023-04-25T10:51:10;10.60;99.90
19252;DHT22;9760;50.944;5.304;2023-04-25T10:53:36;11.80;99.90
19252;DHT22;9760;50.944;5.304;2023-04-25T10:56:16;11.90;99.90
19252;DHT22;9760;50.944;5.304;2023-04-25T10:58:43;11.40;99.90
19252;DHT22;9760;50.944;5.304;2023-04-25T11:01:09;11.20;99.90
19252;DHT22;9760;50.944;5.304;2023-04-25T11:03:41;11.10;99.90
19252;DHT22;9760;50.944;5.304;2023-04-25T11:08:53;11.00;99.90
19252;DHT22;9760;50.944;5.304;2023-04-25T11:11:19;11.60;99.90
19252;DHT22;9760;50.944;5.304;2023-04-25T11:13:49;12.10;99.90
19252;DHT22;9760;50.944;5.304;2023-04-25T11:16:15;11.80;99.90
19252;DHT22;9760;50.944;5.304;2023-04-25T11:18:44;12.00;99.90
19252;DHT22;9760;50.944;5.304;2023-04-25T11:21:11;12.70;99.90
19252;DHT22;9760;50.944;5.304;2023-04-25T11:23:37;12.50;99.90
19252;DHT22;9760;50.944;5.304;2023-04-25T11:26:03;13.00;99.90
19252;DHT22;9760;50.944;5.304;2023-04-25T11:28:29;13.50;99.90
19252;DHT22;9760;50.944;5.304;2023-04-25T11:30:56;14.30;99.90
19252;DHT22;9760;50.944;5.304;2023-04-25T11:33:25;14.50;99.90
19252;DHT22;9760;50.944;5.304;2023-04-25T11:35:53;14.80;99.90
19252;DHT22;9760;50.944;5.304;2023-04-25T11:38:21;13.90;99.90
19252;DHT22;9760;50.944;5.304;2023-04-25T11:40:51;13.00;99.90
19252;DHT22;9760;50.944;5.304;2023-04-25T11:43:19;13.30;99.90
19252;DHT22;9760;50.944;5.304;2023-04-25T11:45:49;13.80;99.90
19252;DHT22;9760;50.944;5.304;2023-04-25T11:48:19;14.20;99.90
19252;DHT22;9760;50.944;5.304;2023-04-25T11:50:45;14.10;99.90
19252;DHT22;9760;50.944;5.304;2023-04-25T11:53:11;13.30;99.90
19252;DHT22;9760;50.944;5.304;2023-04-25T11:55:37;12.90;99.90
19252;DHT22;9760;50.944;5.304;2023-04-25T11:58:04;12.50;99.90
19252;DHT22;9760;50.944;5.304;2023-04-25T12:00:30;12.50;99.90
19252;DHT22;9760;50.944;5.304;2023-04-25T12:02:57;12.50;99.90
19252;DHT22;9760;50.944;5.304;2023-04-25T12:05:29;12.80;99.90
19252;DHT22;9760;50.944;5.304;2023-04-25T12:07:56;12.90;99.90
19252;DHT22;9760;50.944;5.304;2023-04-25T12:10:21;12.90;99.90
19252;DHT22;9760;50.944;5.304;2023-04-25T12:12:49;12.90;99.90
19252;DHT22;9760;50.944;5.304;2023-04-25T12:15:24;12.30;99.90
19252;DHT22;9760;50.944;5.304;2023-04-25T12:17:51;12.00;99.90
19252;DHT22;9760;50.944;5.304;2023-04-25T12:20:20;11.60;99.90
19252;DHT22;9760;50.944;5.304;2023-04-25T12:22:47;11.20;99.90
19252;DHT22;9760;50.944;5.304;2023-04-25T12:28:11;10.30;99.90
19252;DHT22;9760;50.944;5.304;2023-04-25T12:31:06;10.00;99.90
19252;DHT22;9760;50.944;5.304;2023-04-25T12:33:32;10.00;99.90
19252;DHT22;9760;50.944;5.304;2023-04-25T12:36:00;9.70;99.90
19252;DHT22;9760;50.944;5.304;2023-04-25T12:38:30;9.80;99.90
19252;DHT22;9760;50.944;5.304;2023-04-25T12:40:57;9.70;99.90
19252;DHT22;9760;50.944;5.304;2023-04-25T12:43:23;9.80;99.90
19252;DHT22;9760;50.944;5.304;2023-04-25T12:45:51;9.80;99.90
19252;DHT22;9760;50.944;5.304;2023-04-25T12:48:17;10.00;99.90
19252;DHT22;9760;50.944;5.304;2023-04-25T12:50:44;10.30;99.90
19252;DHT22;9760;50.944;5.304;2023-04-25T12:53:10;10.50;99.90
19252;DHT22;9760;50.944;5.304;2023-04-25T12:55:37;10.70;99.90
19252;DHT22;9760;50.944;5.304;2023-04-25T12:58:02;10.90;99.90
19252;DHT22;9760;50.944;5.304;2023-04-25T13:00:29;11.10;99.90
19252;DHT22;9760;50.944;5.304;2023-04-25T13:02:55;11.40;99.90
19252;DHT22;9760;50.944;5.304;2023-04-25T13:05:21;11.90;99.90
19252;DHT22;9760;50.944;5.304;2023-04-25T13:07:46;12.00;99.90
19252;DHT22;9760;50.944;5.304;2023-04-25T13:10:12;12.30;99.90
19252;DHT22;9760;50.944;5.304;2023-04-25T13:12:37;12.10;99.90
19252;DHT22;9760;50.944;5.304;2023-04-25T13:15:03;11.90;99.90
19252;DHT22;9760;50.944;5.304;2023-04-25T13:17:29;11.50;99.90
19252;DHT22;9760;50.944;5.304;2023-04-25T13:19:55;11.20;99.90
19252;DHT22;9760;50.944;5.304;2023-04-25T13:22:21;11.20;99.90
19252;DHT22;9760;50.944;5.304;2023-04-25T13:24:46;11.20;99.90
19252;DHT22;9760;50.944;5.304;2023-04-25T13:27:12;11.20;99.90
19252;DHT22;9760;50.944;5.304;2023-04-25T13:29:38;11.20;99.90
19252;DHT22;9760;50.944;5.304;2023-04-25T13:32:06;11.30;99.90
19252;DHT22;9760;50.944;5.304;2023-04-25T13:34:32;11.20;99.90
19252;DHT22;9760;50.944;5.304;2023-04-25T13:36:58;11.10;99.90
19252;DHT22;9760;50.944;5.304;2023-04-25T13:39:24;11.20;99.90
19252;DHT22;9760;50.944;5.304;2023-04-25T13:41:49;11.20;99.90
19252;DHT22;9760;50.944;5.304;2023-04-25T13:44:15;11.40;99.90
19252;DHT22;9760;50.944;5.304;2023-04-25T13:46:41;11.60;99.90
19252;DHT22;9760;50.944;5.304;2023-04-25T13:49:07;11.90;99.90
19252;DHT22;9760;50.944;5.304;2023-04-25T13:51:32;12.10;99.90
19252;DHT22;9760;50.944;5.304;2023-04-25T13:53:58;12.20;99.90
19252;DHT22;9760;50.944;5.304;2023-04-25T13:56:24;12.50;99.90
19252;DHT22;9760;50.944;5.304;2023-04-25T13:58:50;12.60;99.90
19252;DHT22;9760;50.944;5.304;2023-04-25T14:01:17;12.40;99.90
19252;DHT22;9760;50.944;5.304;2023-04-25T14:03:43;12.40;99.90
19252;DHT22;9760;50.944;5.304;2023-04-25T14:06:08;12.40;99.90
19252;DHT22;9760;50.944;5.304;2023-04-25T14:08:34;11.80;99.90
19252;DHT22;9760;50.944;5.304;2023-04-25T14:11:00;11.50;99.90
19252;DHT22;9760;50.944;5.304;2023-04-25T14:13:26;11.60;99.90
19252;DHT22;9760;50.944;5.304;2023-04-25T14:15:52;11.60;99.90
19252;DHT22;9760;50.944;5.304;2023-04-25T14:18:18;11.60;99.90
19252;DHT22;9760;50.944;5.304;2023-04-25T14:20:44;11.60;99.90
19252;DHT22;9760;50.944;5.304;2023-04-25T14:23:10;12.00;99.90
19252;DHT22;9760;50.944;5.304;2023-04-25T14:25:36;12.50;99.90
19252;DHT22;9760;50.944;5.304;2023-04-25T14:28:02;13.00;99.90
19252;DHT22;9760;50.944;5.304;2023-04-25T14:30:28;13.20;99.90
19252;DHT22;9760;50.944;5.304;2023-04-25T14:32:54;12.60;99.90
19252;DHT22;9760;50.944;5.304;2023-04-25T14:35:19;12.60;99.90
19252;DHT22;9760;50.944;5.304;2023-04-25T14:37:45;12.50;99.90
19252;DHT22;9760;50.944;5.304;2023-04-25T14:40:12;12.50;99.90
19252;DHT22;9760;50.944;5.304;2023-04-25T14:42:39;12.30;99.90
19252;DHT22;9760;50.944;5.304;2023-04-25T14:45:06;12.00;99.90
19252;DHT22;9760;50.944;5.304;2023-04-25T14:47:32;11.90;99.90
19252;DHT22;9760;50.944;5.304;2023-04-25T14:49:58;11.90;99.90
19252;DHT22;9760;50.944;5.304;2023-04-25T14:52:24;12.00;99.90
19252;DHT22;9760;50.944;5.304;2023-04-25T14:54:51;12.10;99.90
19252;DHT22;9760;50.944;5.304;2023-04-25T14:57:17;12.30;99.90
19252;DHT22;9760;50.944;5.304;2023-04-25T14:59:42;12.50;99.90
19252;DHT22;9760;50.944;5.304;2023-04-25T15:02:08;12.70;99.90
19252;DHT22;9760;50.944;5.304;2023-04-25T15:04:34;12.10;99.90
19252;DHT22;9760;50.944;5.304;2023-04-25T15:07:00;11.70;99.90
19252;DHT22;9760;50.944;5.304;2023-04-25T15:09:26;11.50;99.90
19252;DHT22;9760;50.944;5.304;2023-04-25T15:11:52;11.40;99.90
19252;DHT22;9760;50.944;5.304;2023-04-25T15:14:17;11.60;99.90
19252;DHT22;9760;50.944;5.304;2023-04-25T15:16:43;11.80;99.90
19252;DHT22;9760;50.944;5.304;2023-04-25T15:19:09;12.10;99.90
19252;DHT22;9760;50.944;5.304;2023-04-25T15:21:35;12.20;99.90
19252;DHT22;9760;50.944;5.304;2023-04-25T15:24:01;12.10;99.90
19252;DHT22;9760;50.944;5.304;2023-04-25T15:26:27;12.40;99.90
19252;DHT22;9760;50.944;5.304;2023-04-25T15:28:53;12.40;99.90
19252;DHT22;9760;50.944;5.304;2023-04-25T15:31:19;12.60;99.90
19252;DHT22;9760;50.944;5.304;2023-04-25T15:33:44;12.50;99.90
19252;DHT22;9760;50.944;5.304;2023-04-25T15:36:10;11.90;99.90
19252;DHT22;9760;50.944;5.304;2023-04-25T15:38:36;11.50;99.90
19252;DHT22;9760;50.944;5.304;2023-04-25T15:41:02;11.50;99.90
19252;DHT22;9760;50.944;5.304;2023-04-25T15:43:28;11.50;99.90
19252;DHT22;9760;50.944;5.304;2023-04-25T15:45:54;11.30;99.90
19252;DHT22;9760;50.944;5.304;2023-04-25T15:48:20;11.20;99.90
19252;DHT22;9760;50.944;5.304;2023-04-25T15:50:46;11.30;99.90
19252;DHT22;9760;50.944;5.304;2023-04-25T15:53:11;11.40;99.90
19252;DHT22;9760;50.944;5.304;2023-04-25T15:55:37;11.20;99.90
19252;DHT22;9760;50.944;5.304;2023-04-25T15:58:03;11.10;99.90